createdAt,value
2018-03-27T00:00:52.337Z,3.70
2018-03-27T00:03:19.416Z,3.70
2018-03-27T00:05:45.748Z,3.70
2018-03-27T00:08:12.146Z,3.70
2018-03-27T00:10:38.496Z,3.50
2018-03-27T00:13:05.175Z,3.50
2018-03-27T00:15:31.502Z,3.40
2018-03-27T00:17:57.852Z,3.40
2018-03-27T00:20:24.215Z,3.40
2018-03-27T00:22:50.545Z,3.60
2018-03-27T00:25:16.924Z,3.50
2018-03-27T00:27:55.627Z,3.40
2018-03-27T00:30:41.044Z,3.40
2018-03-27T00:33:26.162Z,3.40
2018-03-27T00:36:10.876Z,3.40
2018-03-27T00:38:55.630Z,3.40
2018-03-27T00:44:40.507Z,3.40
2018-03-27T00:47:07.516Z,3.30
2018-03-27T00:49:33.756Z,3.30
2018-03-27T00:52:00.101Z,3.30
2018-03-27T00:54:27.178Z,3.30
2018-03-27T00:56:54.272Z,3.30
2018-03-27T00:59:20.601Z,3.20
2018-03-27T01:01:46.959Z,3.30
2018-03-27T01:04:13.300Z,3.30
2018-03-27T01:06:39.598Z,3.20
2018-03-27T01:09:05.966Z,3.20
2018-03-27T01:11:33.082Z,3.40
2018-03-27T01:14:00.171Z,3.30
2018-03-27T01:16:27.276Z,3.30
2018-03-27T01:18:53.807Z,3.30
2018-03-27T01:21:20.133Z,3.20
2018-03-27T01:23:46.456Z,3.40
2018-03-27T01:26:12.801Z,3.30
2018-03-27T01:28:39.143Z,3.30
2018-03-27T01:31:05.480Z,3.40
2018-03-27T01:33:31.791Z,3.40
2018-03-27T01:35:58.148Z,3.40
2018-03-27T01:38:24.476Z,3.30
2018-03-27T01:40:50.826Z,3.20
2018-03-27T01:43:17.879Z,3.20
2018-03-27T01:45:45.614Z,3.10
2018-03-27T01:48:12.511Z,3.10
2018-03-27T01:50:38.811Z,3.10
2018-03-27T01:53:05.895Z,3.10
2018-03-27T01:55:32.249Z,3.10
2018-03-27T01:57:58.607Z,3.00
2018-03-27T02:00:25.644Z,2.90
2018-03-27T02:02:51.980Z,2.90
2018-03-27T02:05:19.084Z,3.10
2018-03-27T02:07:45.411Z,3.10
2018-03-27T02:10:11.711Z,3.40
2018-03-27T02:12:44.271Z,3.30
2018-03-27T02:15:17.432Z,3.20
2018-03-27T02:17:50.008Z,3.20
2018-03-27T02:20:22.504Z,3.20
2018-03-27T02:22:48.998Z,3.00
2018-03-27T02:25:15.338Z,3.00
2018-03-27T02:27:41.652Z,3.00
2018-03-27T02:30:08.013Z,3.20
2018-03-27T02:32:35.067Z,3.20
2018-03-27T02:35:02.493Z,3.20
2018-03-27T02:37:28.816Z,3.20
2018-03-27T02:39:55.130Z,3.10
2018-03-27T02:42:21.503Z,3.10
2018-03-27T02:44:48.809Z,3.40
2018-03-27T02:47:15.160Z,3.40
2018-03-27T02:49:41.512Z,3.20
2018-03-27T02:52:07.884Z,3.10
2018-03-27T02:54:34.254Z,3.10
2018-03-27T02:57:00.553Z,3.10
2018-03-27T02:59:26.883Z,3.00
2018-03-27T03:01:53.252Z,3.10
2018-03-27T03:04:19.653Z,2.90
2018-03-27T03:06:46.010Z,2.90
2018-03-27T03:09:12.370Z,2.90
2018-03-27T03:11:39.002Z,2.90
2018-03-27T03:14:06.102Z,3.00
2018-03-27T03:16:32.430Z,2.90
2018-03-27T03:18:58.770Z,2.90
2018-03-27T03:21:25.128Z,2.80
2018-03-27T03:23:51.477Z,2.80
2018-03-27T03:26:17.816Z,2.70
2018-03-27T03:28:44.216Z,2.90
2018-03-27T03:31:10.492Z,2.80
2018-03-27T03:33:37.156Z,2.80
2018-03-27T03:36:03.483Z,2.80
2018-03-27T03:38:29.820Z,2.70
2018-03-27T03:40:57.671Z,2.60
2018-03-27T03:43:23.960Z,2.60
2018-03-27T03:45:50.282Z,2.30
2018-03-27T03:48:17.360Z,2.30
2018-03-27T03:50:43.715Z,2.20
2018-03-27T03:53:10.058Z,2.20
2018-03-27T03:55:36.363Z,2.10
2018-03-27T03:58:02.692Z,2.10
2018-03-27T04:00:29.000Z,2.10
2018-03-27T04:02:55.341Z,2.00
2018-03-27T04:05:21.675Z,1.90
2018-03-27T04:07:48.334Z,1.80
2018-03-27T04:10:14.639Z,1.80
2018-03-27T04:12:40.988Z,2.00
2018-03-27T04:15:07.376Z,2.10
2018-03-27T04:17:34.428Z,2.30
2018-03-27T04:20:00.937Z,2.30
2018-03-27T04:22:28.733Z,2.30
2018-03-27T04:24:55.047Z,2.30
2018-03-27T04:27:22.259Z,2.30
2018-03-27T04:29:48.570Z,2.20
2018-03-27T04:32:14.878Z,2.40
2018-03-27T04:34:41.211Z,2.40
2018-03-27T04:37:07.518Z,2.30
2018-03-27T04:39:33.859Z,2.10
2018-03-27T04:42:00.206Z,2.30
2018-03-27T04:44:26.572Z,2.30
2018-03-27T04:46:52.903Z,2.30
2018-03-27T04:49:19.257Z,2.30
2018-03-27T04:51:46.484Z,2.30
2018-03-27T04:54:12.815Z,2.20
2018-03-27T04:56:39.146Z,2.20
2018-03-27T04:59:05.497Z,2.20
2018-03-27T05:01:32.570Z,2.10
2018-03-27T05:03:58.933Z,2.10
2018-03-27T05:06:25.320Z,2.10
2018-03-27T05:08:51.670Z,2.20
2018-03-27T05:11:18.037Z,2.00
2018-03-27T05:13:44.375Z,2.10
2018-03-27T05:16:10.890Z,2.00
2018-03-27T05:18:37.200Z,2.20
2018-03-27T05:21:03.521Z,2.30
2018-03-27T05:23:29.856Z,2.50
2018-03-27T05:25:56.167Z,2.40
2018-03-27T05:28:22.524Z,2.40
2018-03-27T05:30:48.926Z,2.40
2018-03-27T05:33:15.357Z,2.20
2018-03-27T05:35:42.426Z,2.00
2018-03-27T05:38:08.781Z,1.90
2018-03-27T05:40:35.139Z,1.90
2018-03-27T05:43:01.741Z,1.80
2018-03-27T05:45:28.075Z,1.90
2018-03-27T05:47:54.410Z,1.70
2018-03-27T05:50:20.775Z,1.70
2018-03-27T05:52:48.289Z,1.90
2018-03-27T05:55:14.610Z,1.80
2018-03-27T05:57:40.928Z,2.10
2018-03-27T06:00:07.533Z,2.30
2018-03-27T06:02:33.896Z,2.30
2018-03-27T06:05:00.262Z,2.30
2018-03-27T06:07:26.580Z,2.50
2018-03-27T06:09:52.938Z,2.30
2018-03-27T06:12:19.994Z,2.30
2018-03-27T06:14:47.420Z,2.50
2018-03-27T06:17:17.150Z,2.30
2018-03-27T06:19:43.474Z,2.30
2018-03-27T06:22:09.817Z,2.20
2018-03-27T06:24:36.184Z,2.10
2018-03-27T06:27:02.522Z,2.20
2018-03-27T06:29:28.895Z,2.20
2018-03-27T06:31:55.206Z,2.10
2018-03-27T06:34:23.050Z,2.00
2018-03-27T06:36:49.395Z,2.10
2018-03-27T06:39:15.744Z,2.10
2018-03-27T06:41:42.844Z,2.10
2018-03-27T06:44:09.142Z,2.10
2018-03-27T06:46:35.484Z,2.30
2018-03-27T06:49:01.817Z,2.40
2018-03-27T06:51:28.514Z,2.40
2018-03-27T06:53:54.826Z,2.50
2018-03-27T06:56:21.160Z,2.80
2018-03-27T06:58:47.510Z,2.50
2018-03-27T07:01:14.939Z,2.30
2018-03-27T07:03:41.281Z,2.20
2018-03-27T07:06:07.591Z,2.20
2018-03-27T07:08:33.918Z,2.30
2018-03-27T07:11:00.293Z,2.30
2018-03-27T07:13:26.627Z,2.60
2018-03-27T07:15:53.698Z,2.70
2018-03-27T07:18:20.078Z,2.60
2018-03-27T07:20:46.431Z,2.60
2018-03-27T07:23:12.736Z,2.80
2018-03-27T07:25:39.094Z,2.70
2018-03-27T07:28:06.148Z,2.80
2018-03-27T07:30:33.199Z,2.80
2018-03-27T07:33:00.291Z,3.10
2018-03-27T07:35:26.619Z,3.10
2018-03-27T07:37:52.955Z,3.00
2018-03-27T07:40:19.350Z,3.10
2018-03-27T07:42:45.845Z,3.20
2018-03-27T07:45:12.909Z,3.30
2018-03-27T07:47:39.959Z,3.30
2018-03-27T07:50:06.313Z,3.30
2018-03-27T07:52:32.650Z,3.20
2018-03-27T07:54:59.010Z,3.20
2018-03-27T07:58:26.438Z,3.30
2018-03-27T08:01:54.287Z,3.30
2018-03-27T08:04:21.332Z,3.30
2018-03-27T08:06:47.655Z,3.20
2018-03-27T08:09:14.721Z,3.60
2018-03-27T08:11:41.051Z,3.60
2018-03-27T08:14:07.380Z,3.70
2018-03-27T08:16:33.691Z,3.70
2018-03-27T08:19:00.775Z,4.10
2018-03-27T08:21:27.107Z,4.10
2018-03-27T08:23:53.450Z,4.40
2018-03-27T08:26:19.772Z,4.50
2018-03-27T08:28:46.099Z,4.80
2018-03-27T08:31:12.455Z,4.80
2018-03-27T08:33:39.607Z,5.00
2018-03-27T08:36:05.988Z,5.00
2018-03-27T08:38:32.338Z,5.10
2018-03-27T08:40:58.654Z,5.40
2018-03-27T08:46:02.745Z,5.60
2018-03-27T08:48:29.340Z,5.70
2018-03-27T08:50:55.680Z,5.70
2018-03-27T08:53:22.001Z,5.90
2018-03-27T08:55:48.363Z,5.60
2018-03-27T08:58:14.684Z,5.30
2018-03-27T09:00:41.200Z,5.20
2018-03-27T09:03:07.520Z,5.40
2018-03-27T09:05:33.829Z,5.50
2018-03-27T09:08:00.187Z,5.70
2018-03-27T09:10:26.487Z,5.80
2018-03-27T09:12:52.824Z,5.80
2018-03-27T09:15:19.175Z,6.00
2018-03-27T09:17:45.508Z,6.00
2018-03-27T09:20:12.029Z,6.20
2018-03-27T09:22:39.138Z,6.40
2018-03-27T09:25:05.467Z,6.40
2018-03-27T09:27:31.810Z,6.50
2018-03-27T09:29:58.132Z,6.60
2018-03-27T09:32:24.496Z,6.50
2018-03-27T09:34:50.843Z,6.80
2018-03-27T09:37:17.158Z,6.90
2018-03-27T09:39:43.526Z,7.10
2018-03-27T09:42:09.858Z,7.10
2018-03-27T09:44:36.938Z,7.10
2018-03-27T09:47:03.262Z,7.00
2018-03-27T09:49:29.693Z,7.20
2018-03-27T09:51:56.012Z,7.20
2018-03-27T09:54:22.391Z,6.90
2018-03-27T09:56:48.711Z,6.80
2018-03-27T09:59:15.076Z,7.20
2018-03-27T10:01:41.430Z,7.30
2018-03-27T10:04:07.893Z,7.20
2018-03-27T10:06:35.157Z,7.20
2018-03-27T10:09:01.803Z,7.10
2018-03-27T10:11:28.439Z,7.10
2018-03-27T10:13:54.815Z,7.30
2018-03-27T10:16:21.095Z,7.20
2018-03-27T10:18:47.448Z,7.30
2018-03-27T10:21:13.762Z,7.60
2018-03-27T10:23:40.110Z,7.60
2018-03-27T10:26:07.189Z,7.70
2018-03-27T10:28:33.541Z,7.60
2018-03-27T10:30:59.865Z,7.50
2018-03-27T10:33:26.278Z,7.60
2018-03-27T10:35:52.625Z,7.70
2018-03-27T10:38:18.992Z,7.80
2018-03-27T10:40:45.294Z,8.00
2018-03-27T10:43:11.634Z,7.90
2018-03-27T10:45:37.980Z,7.70
2018-03-27T10:48:04.304Z,7.60
2018-03-27T10:50:30.643Z,7.70
2018-03-27T10:52:56.983Z,7.60
2018-03-27T10:55:23.364Z,7.80
2018-03-27T10:57:49.750Z,8.00
2018-03-27T11:00:16.669Z,8.10
2018-03-27T11:02:42.985Z,8.30
2018-03-27T11:05:09.328Z,8.40
2018-03-27T11:07:35.682Z,8.50
2018-03-27T11:10:03.587Z,8.60
2018-03-27T11:12:30.617Z,8.40
2018-03-27T11:14:56.942Z,8.40
2018-03-27T11:17:23.271Z,8.50
2018-03-27T11:19:49.571Z,8.90
2018-03-27T11:22:15.899Z,8.90
2018-03-27T11:24:42.983Z,8.70
2018-03-27T11:27:09.339Z,8.70
2018-03-27T11:29:35.665Z,8.80
2018-03-27T11:32:02.027Z,9.10
2018-03-27T11:34:29.096Z,9.00
2018-03-27T11:36:55.687Z,9.00
2018-03-27T11:39:22.036Z,9.10
2018-03-27T11:41:48.660Z,9.30
2018-03-27T11:44:15.801Z,9.30
2018-03-27T11:46:42.161Z,9.20
2018-03-27T11:49:09.258Z,9.40
2018-03-27T11:51:35.817Z,9.40
2018-03-27T11:54:02.176Z,9.60
2018-03-27T11:56:29.474Z,9.50
2018-03-27T11:58:55.839Z,9.40
2018-03-27T12:01:22.950Z,9.50
2018-03-27T12:03:49.496Z,9.50
2018-03-27T12:06:16.095Z,9.50
2018-03-27T12:08:42.428Z,9.40
2018-03-27T12:11:08.944Z,9.50
2018-03-27T12:13:36.012Z,9.60
2018-03-27T12:16:02.351Z,9.50
2018-03-27T12:18:28.701Z,9.50
2018-03-27T12:20:55.033Z,9.60
2018-03-27T12:23:21.382Z,9.50
2018-03-27T12:25:47.699Z,9.50
2018-03-27T12:28:14.075Z,9.80
2018-03-27T12:30:41.134Z,9.70
2018-03-27T12:33:08.217Z,10.00
2018-03-27T12:35:34.614Z,10.00
2018-03-27T12:38:00.954Z,9.70
2018-03-27T12:40:27.336Z,9.60
2018-03-27T12:42:53.689Z,9.50
2018-03-27T12:45:21.008Z,9.40
2018-03-27T12:47:47.404Z,9.30
2018-03-27T12:50:14.422Z,9.00
2018-03-27T12:52:41.121Z,8.90
2018-03-27T12:55:07.449Z,9.20
2018-03-27T12:57:33.800Z,9.30
2018-03-27T13:00:00.139Z,9.20
2018-03-27T13:02:27.225Z,9.20
2018-03-27T13:04:53.581Z,9.20
2018-03-27T13:07:19.912Z,9.20
2018-03-27T13:09:46.251Z,9.10
2018-03-27T13:12:12.572Z,9.20
2018-03-27T13:14:38.908Z,9.40
2018-03-27T13:17:05.264Z,9.20
2018-03-27T13:19:31.767Z,9.20
2018-03-27T13:21:58.102Z,9.40
2018-03-27T13:24:24.433Z,9.40
2018-03-27T13:26:50.787Z,9.40
2018-03-27T13:29:17.851Z,9.30
2018-03-27T13:31:45.265Z,9.30
2018-03-27T13:34:11.600Z,9.20
2018-03-27T13:36:37.974Z,9.50
2018-03-27T13:39:04.367Z,9.50
2018-03-27T13:41:31.480Z,9.70
2018-03-27T13:43:57.883Z,9.70
2018-03-27T13:46:24.225Z,9.70
2018-03-27T13:48:50.588Z,9.60
2018-03-27T13:51:17.222Z,9.60
2018-03-27T13:53:43.527Z,9.60
2018-03-27T13:56:09.859Z,9.80
2018-03-27T13:58:36.232Z,9.50
2018-03-27T14:01:03.529Z,9.50
2018-03-27T14:03:29.894Z,9.50
2018-03-27T14:05:56.244Z,9.20
2018-03-27T14:08:22.575Z,9.20
2018-03-27T14:10:49.675Z,9.50
2018-03-27T14:13:16.015Z,9.50
2018-03-27T14:15:42.333Z,9.50
2018-03-27T14:18:08.677Z,9.40
2018-03-27T14:20:35.059Z,9.30
2018-03-27T14:23:02.120Z,9.30
2018-03-27T14:25:28.477Z,9.20
2018-03-27T14:27:54.806Z,9.10
2018-03-27T14:30:21.461Z,9.20
2018-03-27T14:32:47.799Z,9.10
2018-03-27T14:35:14.121Z,9.10
2018-03-27T14:37:40.498Z,9.00
2018-03-27T14:40:07.543Z,8.90
2018-03-27T14:42:34.632Z,8.80
2018-03-27T14:45:00.959Z,8.80
2018-03-27T14:47:27.300Z,8.70
2018-03-27T14:49:53.616Z,8.70
2018-03-27T14:52:19.991Z,8.60
2018-03-27T14:54:47.077Z,8.80
2018-03-27T14:57:13.638Z,8.70
2018-03-27T14:59:41.048Z,8.60
2018-03-27T15:02:07.383Z,8.60
2018-03-27T15:04:33.736Z,8.80
2018-03-27T15:07:00.076Z,8.70
2018-03-27T15:09:26.388Z,8.80
2018-03-27T15:11:52.747Z,8.90
2018-03-27T15:14:19.079Z,8.80
2018-03-27T15:16:45.719Z,8.70
2018-03-27T15:19:12.050Z,8.60
2018-03-27T15:21:38.376Z,8.70
2018-03-27T15:24:04.728Z,8.60
2018-03-27T15:26:31.805Z,8.30
2018-03-27T15:28:58.168Z,8.30
2018-03-27T15:31:24.502Z,8.30
2018-03-27T15:33:50.984Z,8.40
2018-03-27T15:36:18.046Z,8.40
2018-03-27T15:38:44.375Z,8.40
2018-03-27T15:41:10.710Z,8.40
2018-03-27T15:43:37.065Z,8.40
2018-03-27T15:46:03.409Z,8.40
2018-03-27T15:48:29.778Z,8.50
2018-03-27T15:50:56.840Z,8.40
2018-03-27T15:53:23.931Z,8.30
2018-03-27T15:55:50.279Z,8.30
2018-03-27T15:58:16.587Z,8.40
2018-03-27T16:00:42.947Z,8.50
2018-03-27T16:03:10.019Z,8.40
2018-03-27T16:05:37.447Z,8.30
2018-03-27T16:08:04.514Z,8.40
2018-03-27T16:10:31.571Z,8.40
2018-03-27T16:12:57.922Z,8.40
2018-03-27T16:15:24.276Z,8.50
2018-03-27T16:17:50.736Z,8.40
2018-03-27T16:20:17.805Z,8.40
2018-03-27T16:22:44.164Z,8.30
2018-03-27T16:25:10.485Z,8.20
2018-03-27T16:27:36.816Z,8.20
2018-03-27T16:30:03.309Z,8.30
2018-03-27T16:32:30.380Z,8.20
2018-03-27T16:34:56.712Z,8.10
2018-03-27T16:37:23.062Z,8.10
2018-03-27T16:39:49.394Z,8.00
2018-03-27T16:42:15.827Z,8.10
2018-03-27T16:44:42.160Z,7.90
2018-03-27T16:47:08.491Z,8.00
2018-03-27T16:49:34.859Z,7.90
2018-03-27T16:52:01.175Z,8.00
2018-03-27T16:54:27.506Z,7.80
2018-03-27T16:56:53.844Z,7.80
2018-03-27T16:59:20.355Z,7.80
2018-03-27T17:01:46.674Z,7.80
2018-03-27T17:04:13.008Z,7.70
2018-03-27T17:06:39.404Z,7.70
2018-03-27T17:09:05.723Z,7.70
2018-03-27T17:11:32.298Z,7.50
2018-03-27T17:13:58.783Z,7.50
2018-03-27T17:16:25.176Z,7.60
2018-03-27T17:18:51.500Z,7.50
2018-03-27T17:21:17.883Z,7.40
2018-03-27T17:23:44.216Z,7.50
2018-03-27T17:26:10.538Z,7.40
2018-03-27T17:28:37.604Z,7.40
2018-03-27T17:31:03.915Z,7.40
2018-03-27T17:33:30.961Z,7.40
2018-03-27T17:35:58.388Z,7.20
2018-03-27T17:38:24.702Z,7.20
2018-03-27T17:40:51.788Z,7.20
2018-03-27T17:43:18.875Z,7.20
2018-03-27T17:45:45.183Z,7.20
2018-03-27T17:48:17.640Z,7.10
2018-03-27T17:50:44.733Z,7.00
2018-03-27T17:53:11.071Z,7.00
2018-03-27T17:55:51.527Z,7.00
2018-03-27T17:58:20.323Z,6.90
2018-03-27T18:00:46.637Z,7.10
2018-03-27T18:03:22.714Z,7.10
2018-03-27T18:05:57.139Z,7.10
2018-03-27T18:16:43.908Z,7.00
2018-03-27T18:19:16.583Z,6.90
2018-03-27T18:24:45.726Z,6.90
2018-03-27T18:27:14.339Z,6.90
2018-03-27T18:29:40.687Z,6.80
2018-03-27T18:32:07.043Z,6.80
2018-03-27T18:34:33.400Z,6.90
2018-03-27T18:37:00.508Z,6.70
2018-03-27T18:39:26.816Z,6.70
2018-03-27T18:41:53.170Z,6.70
2018-03-27T18:44:19.504Z,6.90
2018-03-27T18:46:45.975Z,6.70
2018-03-27T18:49:12.337Z,6.80
2018-03-27T18:51:38.698Z,6.70
2018-03-27T18:54:05.078Z,6.80
2018-03-27T18:56:31.501Z,6.80
2018-03-27T18:58:57.818Z,6.70
2018-03-27T19:01:24.983Z,6.70
2018-03-27T19:03:51.312Z,6.60
2018-03-27T19:06:17.635Z,6.70
2018-03-27T19:08:44.303Z,6.70
2018-03-27T19:11:10.630Z,6.60
2018-03-27T19:13:36.962Z,6.70
2018-03-27T19:16:03.331Z,6.70
2018-03-27T19:18:29.646Z,6.70
2018-03-27T19:20:56.065Z,6.50
2018-03-27T19:23:22.378Z,6.40
2018-03-27T19:25:48.928Z,6.50
2018-03-27T19:28:15.309Z,6.40
2018-03-27T19:30:41.716Z,6.50
2018-03-27T19:33:08.171Z,6.50
2018-03-27T19:35:34.504Z,6.50
2018-03-27T19:38:00.867Z,6.30
2018-03-27T19:40:27.164Z,6.40
2018-03-27T19:42:53.518Z,6.40
2018-03-27T19:45:20.692Z,6.30
2018-03-27T19:47:47.288Z,6.40
2018-03-27T19:50:13.615Z,6.50
2018-03-27T19:52:39.937Z,6.40
2018-03-27T19:55:07.000Z,6.40
2018-03-27T19:57:33.343Z,6.40
2018-03-27T19:59:59.679Z,6.30
2018-03-27T20:02:26.006Z,6.30
2018-03-27T20:04:52.546Z,6.30
2018-03-27T20:07:19.297Z,6.10
2018-03-27T20:09:45.612Z,5.90
2018-03-27T20:12:11.968Z,6.00
2018-03-27T20:14:39.066Z,5.90
2018-03-27T20:17:05.421Z,5.90
2018-03-27T20:19:31.761Z,5.80
2018-03-27T20:21:58.133Z,5.70
2018-03-27T20:24:25.206Z,5.60
2018-03-27T20:26:51.873Z,5.50
2018-03-27T20:29:18.207Z,5.60
2018-03-27T20:31:44.582Z,5.60
2018-03-27T20:34:11.657Z,5.60
2018-03-27T20:36:37.983Z,5.50
2018-03-27T20:39:04.337Z,5.50
2018-03-27T20:41:30.877Z,5.40
2018-03-27T20:43:57.514Z,5.40
2018-03-27T20:46:23.819Z,5.30
2018-03-27T20:48:50.147Z,5.50
2018-03-27T20:51:16.482Z,5.40
2018-03-27T20:53:42.834Z,5.30
2018-03-27T20:56:09.164Z,5.30
2018-03-27T20:58:35.499Z,5.30
2018-03-27T21:01:01.830Z,5.20
2018-03-27T21:03:28.175Z,5.20
2018-03-27T21:05:54.697Z,5.30
2018-03-27T21:08:21.098Z,5.40
2018-03-27T21:10:47.420Z,5.40
2018-03-27T21:13:13.783Z,5.40
2018-03-27T21:15:40.094Z,5.40
2018-03-27T21:18:06.429Z,5.30
2018-03-27T21:20:32.750Z,5.40
2018-03-27T21:22:59.394Z,5.50
2018-03-27T21:25:25.720Z,5.50
2018-03-27T21:27:52.044Z,5.30
2018-03-27T21:30:18.370Z,5.40
2018-03-27T21:32:44.713Z,5.50
2018-03-27T21:35:11.070Z,5.40
2018-03-27T21:37:37.675Z,5.40
2018-03-27T21:40:04.001Z,5.40
2018-03-27T21:42:30.338Z,5.40
2018-03-27T21:44:56.694Z,5.50
2018-03-27T21:47:23.755Z,5.50
2018-03-27T21:49:50.845Z,5.40
2018-03-27T21:52:17.200Z,5.40
2018-03-27T21:54:43.532Z,5.40
2018-03-27T21:57:09.878Z,5.40
2018-03-27T21:59:36.161Z,5.30
2018-03-27T22:02:02.531Z,5.40
2018-03-27T22:04:28.847Z,5.40
2018-03-27T22:06:55.463Z,5.50
2018-03-27T22:09:21.861Z,5.60
2018-03-27T22:11:48.161Z,5.50
2018-03-27T22:14:14.527Z,5.40
2018-03-27T22:16:40.851Z,5.30
2018-03-27T22:19:07.203Z,5.40
2018-03-27T22:21:33.524Z,5.40
2018-03-27T22:23:59.936Z,5.30
2018-03-27T22:26:27.029Z,5.30
2018-03-27T22:28:53.338Z,5.30
2018-03-27T22:31:19.663Z,5.40
2018-03-27T22:33:46.007Z,5.30
2018-03-27T22:36:12.348Z,5.30
2018-03-27T22:38:38.662Z,5.40
2018-03-27T22:41:05.218Z,5.30
2018-03-27T22:43:31.643Z,5.40
2018-03-27T22:45:57.972Z,5.20
2018-03-27T22:48:24.325Z,5.20
2018-03-27T22:50:50.683Z,5.10
2018-03-27T22:53:17.787Z,5.20
2018-03-27T22:55:44.329Z,5.20
2018-03-27T22:58:11.443Z,5.20
2018-03-27T23:00:37.762Z,5.10
2018-03-27T23:03:04.110Z,5.10
2018-03-27T23:05:30.423Z,4.90
2018-03-27T23:07:56.791Z,5.10
2018-03-27T23:10:23.150Z,5.20
2018-03-27T23:12:50.266Z,5.30
2018-03-27T23:15:16.590Z,5.20
2018-03-27T23:17:44.039Z,5.30
2018-03-27T23:20:10.358Z,5.20
2018-03-27T23:22:36.722Z,5.40
2018-03-27T23:25:03.238Z,5.30
2018-03-27T23:27:29.590Z,5.30
2018-03-27T23:29:55.951Z,5.30
2018-03-27T23:32:22.252Z,5.20
2018-03-27T23:34:48.576Z,5.20
2018-03-27T23:37:14.939Z,5.20
2018-03-27T23:39:42.037Z,5.10
2018-03-27T23:42:08.363Z,5.10
2018-03-27T23:44:34.715Z,5.20
2018-03-27T23:47:01.050Z,5.20
2018-03-27T23:49:27.406Z,5.20
2018-03-27T23:51:53.731Z,5.20
2018-03-27T23:54:20.780Z,5.20
2018-03-27T23:56:47.125Z,5.10
2018-03-27T23:59:13.498Z,5.00
